首页
METAR-TAF:

METAR-TAF

机场 :

德拉姆堡, 紐約州, 美国

纬度: 44-03N, 经度: 075-44W, 海拔: 207米

当前天气观测

该预报发布于44分钟前的00:56 UTC
风速3节,风向西转西南
温度 21°C
湿度 64%
气压 1011 hPa
能見度: 16.1公里
阴天层高于8500英尺

METAR: KGTB 190056Z AUTO 24003KT 10SM OVC085 21/14 A2986 RMK AO2 SLP109 T02110140

时间: 21:40 (01:40 UTC)

预报

该预报发布于40分钟前的01:00 UTC
预报有效从19日的 01点(UTC)到 20日的 07点(UTC)
风速6节,风向多变
能见度10公里或以上
少量云层高于4000英尺
散云层高于8000英尺

TAF: KGTB 190100Z 1901/2007 VRB06KT 9999 FEW040 SCT080 QNH2970INS TX26/1921Z TN13/1909Z

超过4000个机场的气象观测和天气预报(METAR&TAF报告)。

可查询的气象台以黄色和红色小点在地图上表示。

将鼠标移到小点上方,可查看气象台名称。

然后点击查看天气观测和预报。

如需切换地图:点击带黑十字的绿色按钮放大地图;点击带横线的绿色按钮缩小地图;或者点击绿色箭头查看邻近地区的地图。


METAR-TAF: